Time;durP1;ratioP1;P1;durP2;ratioP2;P2;SDS_P1;SDS_P2;PMS_P1;PMS_P2;Temp;Humidity;BMP_temperature;BMP_pressure;BME280_temperature;BME280_humidity;BME280_pressure;Samples;Min_cycle;Max_cycle;Signal;HPM_P1;HPM_P2
2023/06/26 00:01:29;;;;;;;10.17;9.20;;;;;;;;;;4993419;28;20519;-79
2023/06/26 00:03:56;;;;;;;10.87;9.50;;;;;;;;;;5027870;28;20456;-81
2023/06/26 00:06:27;;;;;;;9.87;8.97;;;;;;;;;;5027205;28;20586;-80
2023/06/26 00:08:56;;;;;;;10.40;8.13;;;;;;;;;;5027517;28;20459;-81
2023/06/26 00:11:24;;;;;;;9.20;8.30;;;;;;;;;;5027350;28;20519;-78
2023/06/26 00:13:51;;;;;;;9.90;8.90;;;;;;;;;;5028663;28;20455;-81
2023/06/26 00:16:19;;;;;;;10.90;8.93;;;;;;;;;;5028757;28;20442;-80
2023/06/26 00:18:47;;;;;;;11.53;9.00;;;;;;;;;;5028686;28;20460;-81
2023/06/26 00:21:18;;;;;;;10.00;9.00;;;;;;;;;;5029526;28;20514;-80
2023/06/26 00:23:47;;;;;;;9.60;8.70;;;;;;;;;;5028981;28;20464;-81
2023/06/26 00:26:15;;;;;;;9.97;9.07;;;;;;;;;;5029629;28;20499;-81
2023/06/26 00:28:44;;;;;;;9.60;7.90;;;;;;;;;;5027182;28;20521;-81
2023/06/26 00:31:11;;;;;;;9.90;8.73;;;;;;;;;;5024669;28;20745;-81
2023/06/26 00:33:38;;;;;;;10.50;9.50;;;;;;;;;;5024727;28;20451;-82
2023/06/26 00:36:06;;;;;;;10.70;8.63;;;;;;;;;;5026657;28;20474;-80
2023/06/26 00:38:33;;;;;;;9.67;8.67;;;;;;;;;;5027271;28;20470;-80
2023/06/26 00:41:02;;;;;;;10.50;9.07;;;;;;;;;;5028265;28;20463;-83
2023/06/26 00:43:29;;;;;;;9.40;8.50;;;;;;;;;;5028539;28;20458;-81
2023/06/26 00:45:57;;;;;;;9.90;8.90;;;;;;;;;;5029976;28;20487;-80
2023/06/26 00:48:24;;;;;;;11.07;9.90;;;;;;;;;;5029629;28;20463;-81
2023/06/26 00:50:52;;;;;;;9.80;8.90;;;;;;;;;;5028301;28;20493;-78
2023/06/26 00:53:20;;;;;;;10.20;8.70;;;;;;;;;;5028581;28;20465;-80
2023/06/26 00:55:47;;;;;;;8.97;8.13;;;;;;;;;;5026563;28;20459;-79
2023/06/26 00:58:17;;;;;;;21.20;9.20;;;;;;;;;;5027893;28;20447;-79
2023/06/26 01:00:45;;;;;;;9.30;8.40;;;;;;;;;;5029176;28;20470;-80
2023/06/26 01:03:14;;;;;;;10.03;8.27;;;;;;;;;;5028042;28;20855;-82
2023/06/26 01:05:45;;;;;;;9.50;8.57;;;;;;;;;;5029872;28;20458;-82
2023/06/26 01:11:26;;;;;;;9.90;8.87;;;;;;;;;;5027447;28;20409;-81
2023/06/26 01:13:56;;;;;;;9.57;8.60;;;;;;;;;;5027389;28;20602;-83
2023/06/26 01:16:25;;;;;;;10.00;9.00;;;;;;;;;;5029072;28;20490;-83
2023/06/26 01:18:53;;;;;;;9.47;8.57;;;;;;;;;;5031880;28;20558;-81
2023/06/26 01:21:22;;;;;;;9.90;8.90;;;;;;;;;;5028202;28;20451;-80
2023/06/26 01:23:57;;;;;;;9.17;8.10;;;;;;;;;;5031678;28;20880;-82
2023/06/26 01:26:27;;;;;;;9.13;8.30;;;;;;;;;;5029077;28;20528;-79
2023/06/26 01:28:55;;;;;;;9.77;8.77;;;;;;;;;;5025824;28;20498;-80
2023/06/26 01:31:22;;;;;;;9.97;8.97;;;;;;;;;;5026138;28;20494;-80
2023/06/26 01:33:51;;;;;;;9.97;9.07;;;;;;;;;;5028907;28;20483;-81
2023/06/26 01:36:18;;;;;;;9.77;8.77;;;;;;;;;;5026586;28;20463;-83
2023/06/26 01:38:46;;;;;;;11.80;9.10;;;;;;;;;;5029925;28;20451;-80
2023/06/26 01:41:13;;;;;;;10.63;9.40;;;;;;;;;;5028019;28;20547;-82
2023/06/26 01:43:49;;;;;;;10.40;9.30;;;;;;;;;;5030451;28;20451;-81
2023/06/26 01:46:19;;;;;;;8.43;7.50;;;;;;;;;;5028931;28;20538;-82
2023/06/26 01:48:51;;;;;;;9.47;8.50;;;;;;;;;;5031305;28;20629;-83
2023/06/26 01:51:19;;;;;;;9.20;8.30;;;;;;;;;;5028568;28;20457;-81
2023/06/26 01:53:49;;;;;;;9.10;7.53;;;;;;;;;;5028140;28;20462;-81
2023/06/26 01:56:18;;;;;;;10.70;9.60;;;;;;;;;;5030121;28;20873;-82
2023/06/26 01:58:49;;;;;;;13.53;8.20;;;;;;;;;;5028704;28;20467;-83
2023/06/26 02:01:16;;;;;;;9.27;8.27;;;;;;;;;;5030513;28;20474;-81
2023/06/26 02:03:44;;;;;;;9.40;8.50;;;;;;;;;;5028233;28;20470;-79
2023/06/26 02:06:11;;;;;;;9.60;8.67;;;;;;;;;;5028407;28;20482;-82
2023/06/26 02:11:45;;;;;;;8.90;8.03;;;;;;;;;;5020938;28;20477;-83
2023/06/26 02:14:15;;;;;;;9.87;8.30;;;;;;;;;;5029066;28;20495;-78
2023/06/26 02:16:44;;;;;;;10.17;9.10;;;;;;;;;;5010148;28;20478;-80
2023/06/26 02:19:12;;;;;;;9.77;8.77;;;;;;;;;;5023342;28;20474;-81
2023/06/26 02:21:40;;;;;;;10.93;9.73;;;;;;;;;;5023307;28;20444;-83
2023/06/26 02:24:08;;;;;;;9.50;8.60;;;;;;;;;;5021220;28;20494;-79
2023/06/26 02:26:35;;;;;;;8.90;8.00;;;;;;;;;;5022899;28;20510;-80
2023/06/26 02:29:03;;;;;;;9.77;8.13;;;;;;;;;;5024330;28;20455;-82
2023/06/26 02:31:32;;;;;;;8.87;7.93;;;;;;;;;;5021741;28;20471;-81
2023/06/26 02:33:59;;;;;;;8.60;7.80;;;;;;;;;;5025258;28;20458;-81
2023/06/26 02:36:27;;;;;;;7.90;7.03;;;;;;;;;;5022923;28;20454;-82
2023/06/26 02:38:54;;;;;;;8.63;7.73;;;;;;;;;;5028309;28;20459;-83
2023/06/26 02:41:22;;;;;;;8.77;7.90;;;;;;;;;;5030157;28;20459;-82
2023/06/26 02:43:49;;;;;;;9.00;8.10;;;;;;;;;;5031914;28;20450;-80
2023/06/26 02:46:17;;;;;;;9.10;8.30;;;;;;;;;;5028815;28;20483;-80
2023/06/26 02:48:46;;;;;;;9.27;8.13;;;;;;;;;;5028690;28;20498;-81
2023/06/26 02:51:15;;;;;;;10.03;9.10;;;;;;;;;;5029711;28;20455;-79
2023/06/26 02:53:42;;;;;;;9.07;8.17;;;;;;;;;;5028018;28;20478;-78
2023/06/26 02:56:10;;;;;;;10.10;8.23;;;;;;;;;;5029069;28;20491;-81
2023/06/26 02:58:37;;;;;;;8.70;7.90;;;;;;;;;;5032944;28;20455;-79
2023/06/26 03:01:04;;;;;;;9.07;8.13;;;;;;;;;;5032747;28;20463;-81
2023/06/26 03:03:40;;;;;;;10.40;8.27;;;;;;;;;;5031212;28;20459;-82
2023/06/26 03:06:09;;;;;;;8.53;7.17;;;;;;;;;;5032214;28;20586;-81
2023/06/26 03:11:46;;;;;;;8.10;7.30;;;;;;;;;;5026578;28;20561;-81
2023/06/26 03:14:14;;;;;;;8.60;7.80;;;;;;;;;;5030968;28;20511;-82
2023/06/26 03:16:49;;;;;;;7.10;6.40;;;;;;;;;;5031201;28;20447;-80
2023/06/26 03:19:16;;;;;;;9.27;8.23;;;;;;;;;;5025570;28;20459;-82
2023/06/26 03:21:45;;;;;;;9.50;8.00;;;;;;;;;;5026602;28;20473;-82
2023/06/26 03:24:20;;;;;;;8.80;7.90;;;;;;;;;;5024116;28;20495;-82
2023/06/26 03:26:48;;;;;;;8.63;7.60;;;;;;;;;;5027116;28;20499;-83
2023/06/26 03:29:15;;;;;;;9.43;8.10;;;;;;;;;;5029797;28;20456;-82
2023/06/26 03:31:42;;;;;;;10.30;8.90;;;;;;;;;;5030515;28;20951;-80
2023/06/26 03:34:12;;;;;;;9.00;7.93;;;;;;;;;;5030788;28;20458;-81
2023/06/26 03:36:47;;;;;;;8.83;7.93;;;;;;;;;;5031219;28;20459;-81
2023/06/26 03:39:16;;;;;;;9.73;8.10;;;;;;;;;;5030421;28;20455;-80
2023/06/26 03:41:43;;;;;;;9.50;8.60;;;;;;;;;;5029285;28;20452;-80
2023/06/26 03:44:11;;;;;;;8.90;8.00;;;;;;;;;;5031071;28;20459;-81
2023/06/26 03:46:46;;;;;;;8.20;7.40;;;;;;;;;;5029693;28;20486;-79
2023/06/26 03:49:13;;;;;;;14.00;7.93;;;;;;;;;;5024709;28;20809;-81
2023/06/26 03:51:41;;;;;;;9.10;7.87;;;;;;;;;;5026299;28;20456;-82
2023/06/26 03:54:08;;;;;;;8.23;7.30;;;;;;;;;;5022940;28;20459;-81
2023/06/26 03:56:37;;;;;;;10.20;8.17;;;;;;;;;;5024800;28;20936;-82
2023/06/26 03:59:07;;;;;;;9.00;7.97;;;;;;;;;;5024860;28;20466;-80
2023/06/26 04:01:34;;;;;;;8.77;7.37;;;;;;;;;;5026024;28;20459;-81
2023/06/26 04:04:02;;;;;;;9.60;8.20;;;;;;;;;;5024566;28;20529;-81
2023/06/26 04:06:31;;;;;;;9.40;8.40;;;;;;;;;;5026296;28;20467;-81
2023/06/26 04:08:58;;;;;;;10.27;8.73;;;;;;;;;;5026736;28;20444;-80
2023/06/26 04:11:26;;;;;;;8.70;7.80;;;;;;;;;;5026663;28;20796;-81
2023/06/26 04:13:55;;;;;;;9.13;8.20;;;;;;;;;;5029861;28;20444;-81
2023/06/26 04:16:25;;;;;;;11.23;8.37;;;;;;;;;;5030466;28;20466;-82
2023/06/26 04:18:52;;;;;;;9.20;7.20;;;;;;;;;;5026561;28;20459;-81
2023/06/26 04:21:20;;;;;;;11.03;8.03;;;;;;;;;;5027173;28;20423;-82
2023/06/26 04:23:48;;;;;;;11.13;8.30;;;;;;;;;;5030310;28;20920;-79
2023/06/26 04:26:16;;;;;;;8.23;7.23;;;;;;;;;;5028422;28;20448;-82
2023/06/26 04:28:43;;;;;;;10.10;9.17;;;;;;;;;;5028804;28;20498;-82
2023/06/26 04:31:12;;;;;;;8.80;7.90;;;;;;;;;;5027639;28;20758;-83
2023/06/26 04:33:39;;;;;;;7.47;6.67;;;;;;;;;;5028519;28;20652;-80
2023/06/26 04:36:07;;;;;;;10.87;7.90;;;;;;;;;;5025279;28;20463;-82
2023/06/26 04:38:34;;;;;;;8.87;7.73;;;;;;;;;;5023251;28;20442;-80
2023/06/26 04:41:02;;;;;;;8.40;7.40;;;;;;;;;;5027877;28;20501;-82
2023/06/26 04:43:30;;;;;;;7.90;7.10;;;;;;;;;;5026056;28;20559;-77
2023/06/26 04:45:57;;;;;;;8.70;7.40;;;;;;;;;;5028405;28;20474;-82
2023/06/26 04:48:27;;;;;;;9.00;8.10;;;;;;;;;;5028349;28;20487;-81
2023/06/26 04:50:54;;;;;;;8.70;7.30;;;;;;;;;;5030561;28;20483;-79
2023/06/26 04:53:22;;;;;;;8.33;7.50;;;;;;;;;;5033275;28;20456;-82
2023/06/26 04:55:50;;;;;;;10.17;7.80;;;;;;;;;;5026674;28;20486;-79
2023/06/26 04:58:17;;;;;;;8.43;7.13;;;;;;;;;;5027718;28;20452;-82
2023/06/26 05:00:45;;;;;;;7.73;6.43;;;;;;;;;;5023896;28;20459;-83
2023/06/26 05:03:13;;;;;;;7.63;6.50;;;;;;;;;;5023809;28;20483;-79
2023/06/26 05:05:42;;;;;;;9.13;6.83;;;;;;;;;;5022452;28;20447;-83
2023/06/26 05:08:16;;;;;;;7.83;7.03;;;;;;;;;;5024459;28;20491;-80
2023/06/26 05:10:44;;;;;;;7.40;6.30;;;;;;;;;;5024723;28;20495;-81
2023/06/26 05:13:11;;;;;;;7.63;6.87;;;;;;;;;;5026161;28;20479;-82
2023/06/26 05:15:38;;;;;;;7.83;6.57;;;;;;;;;;5026137;28;20758;-80
2023/06/26 05:18:06;;;;;;;8.67;7.00;;;;;;;;;;5023891;28;20486;-83
2023/06/26 05:20:33;;;;;;;10.60;6.20;;;;;;;;;;5022852;28;20538;-81
2023/06/26 05:23:03;;;;;;;12.03;6.70;;;;;;;;;;5019738;28;20455;-83
2023/06/26 05:25:31;;;;;;;7.10;6.40;;;;;;;;;;5021280;28;20875;-79
2023/06/26 05:27:58;;;;;;;10.17;6.73;;;;;;;;;;5017913;28;20821;-80
2023/06/26 05:30:26;;;;;;;8.40;6.80;;;;;;;;;;5019306;28;20465;-81
2023/06/26 05:38:21;;;;;;;6.60;6.00;;;;;;;;;;4139310;26;20734;-73
2023/06/26 05:40:51;;;;;;;8.80;6.40;;;;;;;;;;5011525;28;20439;-73
2023/06/26 05:43:27;;;;;;;8.93;6.20;;;;;;;;;;5009592;28;20473;-75
2023/06/26 05:46:02;;;;;;;6.80;6.10;;;;;;;;;;5011168;28;20463;-73
2023/06/26 05:48:34;;;;;;;6.33;5.47;;;;;;;;;;5011282;28;20755;-73
2023/06/26 05:51:06;;;;;;;7.57;5.97;;;;;;;;;;5010359;28;20447;-75
2023/06/26 05:53:42;;;;;;;7.10;6.40;;;;;;;;;;5000669;28;20464;-74
2023/06/26 05:56:18;;;;;;;6.57;5.93;;;;;;;;;;4994843;28;21200;-72
2023/06/26 05:58:50;;;;;;;8.30;6.50;;;;;;;;;;4992716;28;20443;-73
2023/06/26 06:04:27;;;;;;;7.60;5.53;;;;;;;;;;4988692;28;20989;-73
2023/06/26 06:06:58;;;;;;;6.20;4.90;;;;;;;;;;5011305;28;20463;-73
2023/06/26 06:09:49;;;;;;;6.33;5.70;;;;;;;;;;4999760;28;20563;-73
2023/06/26 06:12:17;;;;;;;8.97;5.93;;;;;;;;;;5010908;28;20499;-75
2023/06/26 06:14:46;;;;;;;6.70;5.03;;;;;;;;;;5013514;28;20494;-74
2023/06/26 06:17:19;;;;;;;8.03;6.00;;;;;;;;;;5017115;28;20474;-72
2023/06/26 06:19:57;;;;;;;8.10;5.50;;;;;;;;;;5014690;28;20526;-74
2023/06/26 06:22:26;;;;;;;8.23;5.63;;;;;;;;;;5013683;28;20498;-74
2023/06/26 06:24:55;;;;;;;8.30;5.17;;;;;;;;;;5016564;28;20447;-74
2023/06/26 06:27:23;;;;;;;8.67;5.70;;;;;;;;;;5016759;28;20817;-73
2023/06/26 06:29:51;;;;;;;7.90;5.83;;;;;;;;;;5013707;28;20457;-73
2023/06/26 06:32:22;;;;;;;7.90;5.40;;;;;;;;;;5013711;28;20462;-74
2023/06/26 06:34:50;;;;;;;7.93;5.80;;;;;;;;;;5012245;28;20537;-74
2023/06/26 06:37:31;;;;;;;6.57;5.30;;;;;;;;;;5013166;28;20462;-73
2023/06/26 06:43:36;;;;;;;;;;;;;;;;;;;;;
2023/06/26 06:46:27;;;;;;;;;;;;;;;;;;;;;
2023/06/26 06:48:58;;;;;;;10.97;5.23;;;;;;;;;;5013712;28;21042;-72
2023/06/26 06:55:25;;;;;;;6.60;5.63;;;;;;;;;;4943571;28;20445;-74
2023/06/26 07:03:56;;;;;;;10.00;6.83;;;;;;;;;;5009044;28;20545;-74
2023/06/26 07:06:26;;;;;;;7.00;6.30;;;;;;;;;;5035099;28;20467;-74
2023/06/26 07:17:12;;;;;;;8.07;6.07;;;;;;;;;;5034623;22;20483;-82
2023/06/26 07:19:40;;;;;;;7.57;5.80;;;;;;;;;;5019210;28;20494;-79
2023/06/26 07:22:12;;;;;;;6.90;5.70;;;;;;;;;;5023712;28;20553;-83
2023/06/26 07:24:42;;;;;;;8.83;5.80;;;;;;;;;;5022025;28;20479;-83
2023/06/26 07:27:13;;;;;;;7.77;5.57;;;;;;;;;;5023166;28;20467;-82
2023/06/26 07:29:45;;;;;;;10.43;5.57;;;;;;;;;;5025108;28;20475;-81
2023/06/26 07:32:14;;;;;;;6.43;5.57;;;;;;;;;;5023347;28;20467;-79
2023/06/26 07:34:44;;;;;;;6.10;5.33;;;;;;;;;;5047431;28;20507;-80
2023/06/26 07:37:12;;;;;;;6.17;5.00;;;;;;;;;;5049486;28;20442;-84
2023/06/26 07:39:40;;;;;;;7.57;5.10;;;;;;;;;;5047471;28;20470;-80
2023/06/26 07:42:07;;;;;;;7.17;5.70;;;;;;;;;;5047528;28;20470;-82
2023/06/26 07:44:35;;;;;;;6.43;5.60;;;;;;;;;;5041991;28;20490;-81
2023/06/26 07:47:21;;;;;;;7.07;5.40;;;;;;;;;;5044951;28;20438;-78
2023/06/26 07:49:57;;;;;;;6.33;4.87;;;;;;;;;;5054017;28;20447;-83
2023/06/26 07:52:31;;;;;;;6.80;5.33;;;;;;;;;;5036194;28;20859;-83
2023/06/26 07:54:59;;;;;;;7.07;6.37;;;;;;;;;;5024967;28;20758;-81
2023/06/26 07:57:28;;;;;;;6.97;5.40;;;;;;;;;;5045306;28;20493;-81
2023/06/26 08:00:11;;;;;;;9.20;5.40;;;;;;;;;;5045481;28;20462;-83
2023/06/26 08:02:40;;;;;;;6.03;5.10;;;;;;;;;;5048300;28;20454;-80
2023/06/26 08:05:13;;;;;;;5.70;5.00;;;;;;;;;;5048012;28;20578;-82
2023/06/26 08:07:49;;;;;;;5.90;4.83;;;;;;;;;;5049741;28;20514;-80
2023/06/26 08:10:23;;;;;;;7.20;4.90;;;;;;;;;;5047532;28;20465;-80
2023/06/26 08:12:51;;;;;;;6.60;5.77;;;;;;;;;;5049425;28;20455;-81
2023/06/26 08:15:20;;;;;;;7.10;5.83;;;;;;;;;;5048390;28;20430;-84
2023/06/26 08:17:50;;;;;;;6.17;5.57;;;;;;;;;;5047576;28;20477;-81
2023/06/26 08:20:25;;;;;;;6.70;5.90;;;;;;;;;;5050623;28;20557;-79
2023/06/26 08:22:54;;;;;;;8.17;6.00;;;;;;;;;;5046875;28;20460;-82
2023/06/26 08:25:21;;;;;;;6.80;5.47;;;;;;;;;;5046653;28;20474;-80
2023/06/26 08:28:07;;;;;;;12.03;5.77;;;;;;;;;;5050735;28;20461;-80
2023/06/26 08:30:35;;;;;;;7.10;5.57;;;;;;;;;;5052064;28;20478;-81
2023/06/26 08:33:02;;;;;;;6.90;5.40;;;;;;;;;;5036367;28;20565;-82
2023/06/26 08:35:31;;;;;;;7.60;5.90;;;;;;;;;;5026584;28;20480;-80
2023/06/26 08:37:59;;;;;;;7.00;5.80;;;;;;;;;;5019910;28;20507;-80
2023/06/26 08:40:29;;;;;;;6.77;5.73;;;;;;;;;;5003738;28;20471;-80
2023/06/26 08:42:57;;;;;;;6.30;5.33;;;;;;;;;;5005299;28;20599;-81
2023/06/26 08:45:24;;;;;;;7.63;5.73;;;;;;;;;;5012466;28;20460;-79
2023/06/26 08:47:56;;;;;;;8.57;5.70;;;;;;;;;;5027445;28;20523;-80
2023/06/26 08:50:24;;;;;;;7.23;5.27;;;;;;;;;;5025527;28;20873;-79
2023/06/26 08:53:06;;;;;;;7.10;5.67;;;;;;;;;;5024476;28;20455;-80
2023/06/26 08:55:37;;;;;;;9.87;5.60;;;;;;;;;;5023901;28;20506;-81
2023/06/26 08:58:08;;;;;;;6.30;5.20;;;;;;;;;;5023236;28;20454;-81
2023/06/26 09:00:43;;;;;;;10.53;6.33;;;;;;;;;;5023027;28;20482;-81
2023/06/26 09:03:13;;;;;;;7.50;6.07;;;;;;;;;;5024466;28;20489;-80
2023/06/26 09:05:40;;;;;;;7.10;5.87;;;;;;;;;;5013945;28;20459;-81
2023/06/26 09:08:19;;;;;;;6.10;5.47;;;;;;;;;;5021014;28;20489;-79
2023/06/26 09:10:46;;;;;;;7.63;6.37;;;;;;;;;;5022433;28;20470;-83
2023/06/26 09:13:14;;;;;;;6.53;5.07;;;;;;;;;;5022532;28;20490;-81
2023/06/26 09:15:44;;;;;;;7.20;6.13;;;;;;;;;;5025218;28;20462;-79
2023/06/26 09:18:15;;;;;;;11.00;5.70;;;;;;;;;;5022272;28;20458;-80
2023/06/26 09:20:42;;;;;;;8.07;5.67;;;;;;;;;;5021702;28;20478;-81
2023/06/26 09:23:12;;;;;;;7.73;6.23;;;;;;;;;;5022693;28;20613;-81
2023/06/26 09:25:39;;;;;;;8.33;6.43;;;;;;;;;;5021513;28;20458;-81
2023/06/26 09:28:25;;;;;;;6.20;5.17;;;;;;;;;;5025882;28;20478;-80
2023/06/26 09:30:57;;;;;;;6.80;5.53;;;;;;;;;;5029866;28;20456;-79
2023/06/26 09:33:25;;;;;;;8.13;5.87;;;;;;;;;;5026775;28;20479;-80
2023/06/26 09:35:53;;;;;;;6.60;5.23;;;;;;;;;;5025288;28;20462;-80
2023/06/26 09:38:26;;;;;;;6.47;5.20;;;;;;;;;;5025593;28;20463;-81
2023/06/26 09:40:54;;;;;;;6.90;5.70;;;;;;;;;;5024080;28;20448;-80
2023/06/26 09:43:24;;;;;;;12.77;6.47;;;;;;;;;;5023717;28;20730;-81
2023/06/26 09:45:54;;;;;;;7.10;6.23;;;;;;;;;;5023711;28;20470;-81
2023/06/26 09:48:22;;;;;;;8.03;5.73;;;;;;;;;;5021071;28;20475;-80
2023/06/26 09:50:51;;;;;;;11.13;8.63;;;;;;;;;;5024632;28;20466;-79
2023/06/26 09:53:20;;;;;;;8.37;5.87;;;;;;;;;;5023006;28;20457;-82
2023/06/26 09:55:51;;;;;;;7.80;6.40;;;;;;;;;;5018519;28;20454;-80
2023/06/26 09:58:22;;;;;;;6.80;5.50;;;;;;;;;;5020308;28;20501;-79
2023/06/26 10:00:51;;;;;;;9.30;6.60;;;;;;;;;;5020118;28;20463;-79
2023/06/26 10:03:20;;;;;;;7.47;6.33;;;;;;;;;;5018792;28;20535;-79
2023/06/26 10:05:53;;;;;;;9.90;6.50;;;;;;;;;;5018541;28;20460;-79
2023/06/26 10:08:21;;;;;;;8.17;6.93;;;;;;;;;;5020846;28;20466;-80
2023/06/26 10:10:53;;;;;;;9.00;7.77;;;;;;;;;;5022539;28;20520;-77
2023/06/26 10:13:24;;;;;;;8.50;6.83;;;;;;;;;;5019521;28;20455;-81
2023/06/26 10:15:54;;;;;;;9.10;6.80;;;;;;;;;;5017630;28;20454;-81
2023/06/26 10:18:23;;;;;;;10.30;7.60;;;;;;;;;;5018843;28;20458;-81
2023/06/26 10:20:51;;;;;;;10.17;7.90;;;;;;;;;;5019356;28;20459;-79
2023/06/26 10:23:21;;;;;;;8.67;6.50;;;;;;;;;;5019329;28;20463;-82
2023/06/26 10:25:53;;;;;;;7.80;6.80;;;;;;;;;;5020296;28;21009;-81
2023/06/26 10:28:23;;;;;;;9.20;6.90;;;;;;;;;;5019980;28;20451;-80
2023/06/26 10:30:52;;;;;;;9.37;7.97;;;;;;;;;;5023276;28;20458;-82
2023/06/26 10:33:21;;;;;;;9.67;8.33;;;;;;;;;;5022854;28;20515;-84
2023/06/26 10:35:51;;;;;;;9.73;7.67;;;;;;;;;;5023086;28;20483;-81
2023/06/26 10:38:19;;;;;;;11.00;8.93;;;;;;;;;;5024347;28;20439;-82
2023/06/26 10:40:48;;;;;;;10.47;7.67;;;;;;;;;;5022746;28;20458;-79
2023/06/26 10:43:19;;;;;;;9.23;7.13;;;;;;;;;;5020270;28;20474;-79
2023/06/26 10:45:52;;;;;;;8.83;6.80;;;;;;;;;;5017729;28;20455;-80
2023/06/26 10:48:19;;;;;;;7.20;6.27;;;;;;;;;;5022279;28;20478;-83
2023/06/26 10:50:52;;;;;;;8.70;6.40;;;;;;;;;;5022926;28;20460;-81
2023/06/26 10:53:26;;;;;;;14.80;6.07;;;;;;;;;;5014216;28;20500;-79
2023/06/26 10:55:57;;;;;;;8.93;3.87;;;;;;;;;;5023760;28;20455;-83
2023/06/26 10:58:35;;;;;;;8.23;3.87;;;;;;;;;;5023931;28;20502;-83
2023/06/26 11:01:20;;;;;;;8.80;3.90;;;;;;;;;;5025465;28;20539;-84
2023/06/26 11:03:52;;;;;;;9.00;4.57;;;;;;;;;;5030193;28;20489;-86
2023/06/26 11:06:20;;;;;;;7.63;4.43;;;;;;;;;;5016326;28;20469;-81
2023/06/26 11:08:54;;;;;;;10.90;4.40;;;;;;;;;;5024898;28;20918;-84
2023/06/26 11:11:48;;;;;;;7.00;5.00;;;;;;;;;;5027923;28;20473;-82
2023/06/26 11:22:16;;;;;;;8.67;5.33;;;;;;;;;;5023544;28;20225;-85
2023/06/26 11:24:47;;;;;;;13.40;7.70;;;;;;;;;;5027312;28;20228;-85
2023/06/26 11:27:14;;;;;;;11.90;8.40;;;;;;;;;;5020355;28;20471;-84
2023/06/26 11:29:50;;;;;;;10.37;7.27;;;;;;;;;;5019817;28;20575;-87
2023/06/26 11:32:18;;;;;;;11.10;7.33;;;;;;;;;;5023166;28;20451;-83
2023/06/26 11:34:51;;;;;;;9.00;7.87;;;;;;;;;;5029264;28;20516;-83
2023/06/26 11:46:48;;;;;;;11.30;9.43;;;;;;;;;;5045269;23;20811;-74
2023/06/26 11:49:27;;;;;;;11.20;7.43;;;;;;;;;;4993946;28;20514;-75
2023/06/26 11:54:53;;;;;;;11.47;9.10;;;;;;;;;;5026136;28;20454;-73
2023/06/26 12:06:59;;;;;;;;;;;;;;;;;;;;;
2023/06/26 12:09:50;;;;;;;7.90;6.00;;;;;;;;;;5031737;28;20478;-73
2023/06/26 12:12:28;;;;;;;8.77;5.60;;;;;;;;;;5033651;28;20760;-72
2023/06/26 12:15:28;;;;;;;8.37;5.60;;;;;;;;;;5037858;28;20745;-73
2023/06/26 12:18:24;;;;;;;10.73;4.90;;;;;;;;;;4937318;29;20535;-72
2023/06/26 12:24:17;;;;;;;6.30;3.30;;;;;;;;;;4969230;28;20603;-73
2023/06/26 12:29:22;;;;;;;8.23;3.50;;;;;;;;;;4811306;26;20580;-82
2023/06/26 12:31:57;;;;;;;8.93;4.37;;;;;;;;;;5040708;28;21056;-82
2023/06/26 12:34:30;;;;;;;9.37;3.83;;;;;;;;;;5040732;28;20458;-81
2023/06/26 12:37:03;;;;;;;5.57;2.90;;;;;;;;;;5040152;28;20569;-82
2023/06/26 12:39:33;;;;;;;9.03;3.40;;;;;;;;;;5037513;28;20442;-81
2023/06/26 12:42:06;;;;;;;4.93;2.50;;;;;;;;;;5056714;28;20449;-81
2023/06/26 12:44:38;;;;;;;7.90;4.40;;;;;;;;;;5038895;28;20490;-83
2023/06/26 12:47:08;;;;;;;7.00;2.40;;;;;;;;;;5043478;28;20454;-81
2023/06/26 12:49:35;;;;;;;6.47;2.13;;;;;;;;;;5037757;28;20487;-81
2023/06/26 12:52:04;;;;;;;5.80;2.60;;;;;;;;;;5039393;28;20451;-80
2023/06/26 12:54:33;;;;;;;6.93;2.20;;;;;;;;;;5039109;28;20457;-81
2023/06/26 12:57:03;;;;;;;3.67;1.50;;;;;;;;;;5041968;28;20458;-80
2023/06/26 12:59:31;;;;;;;5.83;1.90;;;;;;;;;;5037555;28;20534;-84
2023/06/26 13:02:00;;;;;;;6.50;1.60;;;;;;;;;;5042226;28;20489;-83
2023/06/26 13:04:32;;;;;;;4.10;1.67;;;;;;;;;;5038730;28;20540;-82
2023/06/26 13:07:00;;;;;;;5.83;2.20;;;;;;;;;;5041724;28;20509;-81
2023/06/26 13:09:28;;;;;;;4.63;1.40;;;;;;;;;;5034188;28;20478;-83
2023/06/26 13:12:11;;;;;;;4.90;1.73;;;;;;;;;;5042289;28;20446;-82
2023/06/26 13:14:48;;;;;;;3.60;1.90;;;;;;;;;;5038318;28;20525;-81
2023/06/26 13:17:18;;;;;;;7.90;2.30;;;;;;;;;;5040808;28;20461;-83
2023/06/26 13:19:45;;;;;;;4.30;1.60;;;;;;;;;;5038057;28;20466;-81
2023/06/26 13:22:13;;;;;;;4.40;1.60;;;;;;;;;;5042048;28;20518;-82
2023/06/26 13:24:41;;;;;;;3.77;1.73;;;;;;;;;;5031495;28;20530;-81
2023/06/26 13:27:13;;;;;;;4.70;1.40;;;;;;;;;;5024081;28;20458;-81
2023/06/26 13:29:40;;;;;;;3.30;1.53;;;;;;;;;;5026026;28;20491;-81
2023/06/26 13:32:08;;;;;;;5.17;2.07;;;;;;;;;;5026399;28;20455;-82
2023/06/26 13:34:37;;;;;;;3.57;1.97;;;;;;;;;;5023968;28;20482;-83
2023/06/26 13:37:04;;;;;;;5.20;2.00;;;;;;;;;;5024015;28;21217;-83
2023/06/26 13:39:31;;;;;;;5.13;1.60;;;;;;;;;;5025158;28;20458;-82
2023/06/26 13:42:00;;;;;;;4.17;1.70;;;;;;;;;;5030608;28;20462;-80
2023/06/26 13:44:31;;;;;;;4.23;2.10;;;;;;;;;;5029732;28;20495;-83
2023/06/26 13:46:59;;;;;;;4.13;1.60;;;;;;;;;;5021171;28;20459;-81
2023/06/26 13:49:26;;;;;;;3.83;1.70;;;;;;;;;;5024960;28;20450;-81
2023/06/26 13:51:59;;;;;;;9.03;2.27;;;;;;;;;;5024578;28;20951;-81
2023/06/26 13:54:27;;;;;;;5.73;2.30;;;;;;;;;;5041326;28;20521;-81
2023/06/26 13:57:02;;;;;;;3.43;1.70;;;;;;;;;;5041308;28;20445;-82
2023/06/26 13:59:30;;;;;;;10.10;1.93;;;;;;;;;;5043415;28;20456;-81
2023/06/26 14:01:58;;;;;;;3.80;1.27;;;;;;;;;;5042440;28;20442;-82
2023/06/26 14:04:26;;;;;;;6.37;1.53;;;;;;;;;;5044039;28;20485;-81
2023/06/26 14:06:59;;;;;;;3.33;1.73;;;;;;;;;;5046575;28;20446;-81
2023/06/26 14:09:41;;;;;;;5.07;1.50;;;;;;;;;;5046777;28;20454;-82
2023/06/26 14:14:54;;;;;;;4.40;2.60;;;;;;;;;;5029779;28;20450;-80
2023/06/26 14:17:47;;;;;;;9.17;2.00;;;;;;;;;;5044393;28;20467;-81
2023/06/26 14:20:22;;;;;;;4.23;1.70;;;;;;;;;;5038657;28;20474;-82
2023/06/26 14:22:51;;;;;;;6.13;1.57;;;;;;;;;;5044127;28;20461;-81
2023/06/26 14:25:19;;;;;;;6.10;1.63;;;;;;;;;;5041146;28;20955;-82
2023/06/26 14:27:46;;;;;;;4.63;2.50;;;;;;;;;;5040514;28;20443;-81
2023/06/26 14:30:17;;;;;;;2.90;1.30;;;;;;;;;;5041756;28;20478;-81
2023/06/26 14:32:45;;;;;;;5.00;1.77;;;;;;;;;;5042638;28;20455;-81
2023/06/26 14:35:12;;;;;;;6.43;2.00;;;;;;;;;;5036375;28;20544;-81
2023/06/26 14:37:41;;;;;;;5.63;2.30;;;;;;;;;;5041051;28;20462;-81
2023/06/26 14:40:10;;;;;;;6.40;1.70;;;;;;;;;;5042283;28;20462;-80
2023/06/26 14:42:38;;;;;;;3.10;1.20;;;;;;;;;;5042397;28;20856;-80
2023/06/26 14:45:07;;;;;;;4.50;1.40;;;;;;;;;;5045392;28;20450;-81
2023/06/26 14:47:35;;;;;;;4.40;1.40;;;;;;;;;;5027839;28;20482;-80
2023/06/26 14:50:20;;;;;;;4.27;1.47;;;;;;;;;;5045804;28;20903;-80
2023/06/26 14:52:47;;;;;;;4.20;1.60;;;;;;;;;;5038993;28;20457;-81
2023/06/26 14:55:16;;;;;;;7.20;1.60;;;;;;;;;;5044858;28;20527;-81
2023/06/26 14:57:44;;;;;;;4.73;2.00;;;;;;;;;;5045728;28;20492;-81
2023/06/26 15:00:17;;;;;;;5.60;1.87;;;;;;;;;;5045455;28;20488;-80
2023/06/26 15:02:45;;;;;;;4.20;1.90;;;;;;;;;;5043842;28;20446;-81
2023/06/26 15:05:12;;;;;;;2.80;1.40;;;;;;;;;;5045178;28;20513;-80
2023/06/26 15:07:46;;;;;;;3.47;1.23;;;;;;;;;;5044819;28;20454;-80
2023/06/26 15:10:14;;;;;;;3.60;1.83;;;;;;;;;;5042258;28;20525;-82
2023/06/26 15:12:43;;;;;;;6.30;1.30;;;;;;;;;;5042007;28;20450;-82
2023/06/26 15:15:11;;;;;;;6.63;1.87;;;;;;;;;;5041773;28;20532;-81
2023/06/26 15:18:08;;;;;;;;;;;;;;;;;;;;;
2023/06/26 15:20:40;;;;;;;5.37;1.30;;;;;;;;;;5048439;28;20469;-81
2023/06/26 15:23:07;;;;;;;5.07;1.40;;;;;;;;;;5037651;28;21105;-80
2023/06/26 15:25:38;;;;;;;6.43;1.70;;;;;;;;;;5038037;28;20520;-82
2023/06/26 15:28:11;;;;;;;3.43;1.50;;;;;;;;;;5041107;28;20461;-82
2023/06/26 15:30:50;;;;;;;4.60;1.43;;;;;;;;;;5026651;28;20560;-81
2023/06/26 15:33:21;;;;;;;4.40;1.57;;;;;;;;;;5041146;28;20449;-83
2023/06/26 15:35:49;;;;;;;5.90;1.80;;;;;;;;;;5038059;28;20476;-82
2023/06/26 15:38:16;;;;;;;4.20;1.63;;;;;;;;;;5035566;28;20524;-82
2023/06/26 15:40:44;;;;;;;4.57;1.60;;;;;;;;;;5040129;28;20719;-81
2023/06/26 15:43:12;;;;;;;4.77;1.43;;;;;;;;;;5041346;28;20509;-80
2023/06/26 15:45:40;;;;;;;6.40;1.67;;;;;;;;;;5036756;28;20469;-81
2023/06/26 15:48:07;;;;;;;6.97;2.07;;;;;;;;;;5036889;28;20465;-82
2023/06/26 15:50:35;;;;;;;5.40;1.60;;;;;;;;;;5040251;28;20915;-82
2023/06/26 15:53:04;;;;;;;2.87;1.03;;;;;;;;;;5039310;28;21109;-80
2023/06/26 15:55:31;;;;;;;7.90;1.43;;;;;;;;;;5050935;28;20478;-81
2023/06/26 15:58:01;;;;;;;8.83;3.10;;;;;;;;;;5039460;28;20455;-80
2023/06/26 16:00:29;;;;;;;4.73;1.03;;;;;;;;;;5036616;28;20633;-80
2023/06/26 16:02:57;;;;;;;4.63;1.30;;;;;;;;;;5040167;28;20458;-82
2023/06/26 16:05:24;;;;;;;2.83;1.00;;;;;;;;;;5046131;28;20442;-81
2023/06/26 16:07:52;;;;;;;6.37;2.37;;;;;;;;;;5041813;28;20466;-83
2023/06/26 16:10:19;;;;;;;5.40;1.87;;;;;;;;;;5042370;28;20512;-81
2023/06/26 16:12:47;;;;;;;3.03;1.00;;;;;;;;;;5041130;28;20864;-82
2023/06/26 16:15:18;;;;;;;5.27;1.73;;;;;;;;;;5039414;28;21080;-83
2023/06/26 16:17:47;;;;;;;3.37;1.20;;;;;;;;;;5040848;28;20489;-80
2023/06/26 16:20:17;;;;;;;6.37;1.40;;;;;;;;;;5040033;28;20511;-82
2023/06/26 16:22:44;;;;;;;3.20;1.00;;;;;;;;;;5038615;28;20451;-82